Kezdőlap
METAR-TAF:

METAR-TAF

Repülőterek :

Christchurch, Új-Zéland

földrajzi szélesség: 43-29S, földrajzi hosszúság: 172-33E, magasság: 38 m

Jelenlegi meteorológiai megfigyelések

A jelentés 37 perccel ezelõtt készült, 18:30 UTC
Szélcsend
Hőmérséklet -2°C
Páratartalom 93%
Légköri nyomás 1014 hPa
Látótávolság: 7000 m

METAR: NZCH 191830Z AUTO 00000KT 7000 R20/0800D SCT002/// M02/M03 Q1014 TEMPO 4000 BR

Idő: 07:07 (19:07 UTC)

Előrejelzés

A jelentés 9 perccel ezelõtt készült, 18:58 UTC
Az előrejelzés 19-én 18 óra UTC és 20-én 18 óra UTC között érvényes
Különbözõ irányokból fújó szél 2 kt
Látótávolság: 0500 m
köd
19-én 19 óra UTC és 19-én 21 óra UTC között fokozatosan kialakuló
Látótávolság 10 km, vagy több
20-én 04 óra UTC és 20-én 06 óra UTC között fokozatosan kialakuló
Kelet-északkeleti szél 10 kt

TAF: NZCH 191858Z 1918/2018 VRB02KT 0500 FG NSC BECMG 1919/1921 9999 NSW BECMG 2004/2006 06010KT

Meteorológiai megfigyelések és előrejelzések több, mint 4000 repülőtéren (METAR és TAF jelentéseket).

A térképen piros és sárga pontok jelzik az elérhető meteorológiai állomásokat.

Mozgassa az egeret a pont fölött, hogy megjelenjen az állomás neve.

Azután kattintson az időjárási megfigyelések és előrejelzések megtekintéséhez.

A térkép megváltoztatása: kattintson a fekete keresztel jelölt zöld gombra ráközelítéshez, a vonallal jelölt zöld gombra távolításhoz, vagy a zöld nyilakra a szomszédos térképek eléréséhez.


METAR-TAF: